sensor_id;sensor_type;location;lat;lon;timestamp;pressure;altitude;pressure_sealevel;temperature;humidity
21706;BME280;11014;53.076;18.208;2024-02-16T00:00:30;101678.75;;;14.88;72.26
21706;BME280;11014;53.076;18.208;2024-02-16T00:03:19;101677.66;;;14.89;72.25
21706;BME280;11014;53.076;18.208;2024-02-16T00:05:49;101677.09;;;14.87;71.96
21706;BME280;11014;53.076;18.208;2024-02-16T00:08:25;101677.91;;;14.88;72.16
21706;BME280;11014;53.076;18.208;2024-02-16T00:10:54;101676.25;;;14.87;72.24
21706;BME280;11014;53.076;18.208;2024-02-16T00:13:26;101683.69;;;14.91;72.24
21706;BME280;11014;53.076;18.208;2024-02-16T00:15:56;101678.41;;;14.96;71.77
21706;BME280;11014;53.076;18.208;2024-02-16T00:18:26;101676.88;;;15.00;71.87
21706;BME280;11014;53.076;18.208;2024-02-16T00:20:55;101681.59;;;15.05;71.42
21706;BME280;11014;53.076;18.208;2024-02-16T00:23:24;101681.34;;;15.06;71.33
21706;BME280;11014;53.076;18.208;2024-02-16T00:25:53;101683.00;;;15.07;71.41
21706;BME280;11014;53.076;18.208;2024-02-16T00:28:23;101688.41;;;15.07;71.45
21706;BME280;11014;53.076;18.208;2024-02-16T00:30:52;101686.88;;;15.11;71.26
21706;BME280;11014;53.076;18.208;2024-02-16T00:33:21;101685.81;;;15.12;71.05
21706;BME280;11014;53.076;18.208;2024-02-16T00:35:50;101692.91;;;15.13;71.06
21706;BME280;11014;53.076;18.208;2024-02-16T00:38:21;101689.94;;;15.15;70.91
21706;BME280;11014;53.076;18.208;2024-02-16T00:40:50;101691.50;;;15.11;70.74
21706;BME280;11014;53.076;18.208;2024-02-16T00:43:20;101685.47;;;15.09;70.70
21706;BME280;11014;53.076;18.208;2024-02-16T00:45:48;101682.66;;;15.04;71.13
21706;BME280;11014;53.076;18.208;2024-02-16T00:48:17;101680.19;;;15.02;71.12
21706;BME280;11014;53.076;18.208;2024-02-16T00:50:46;101681.81;;;15.03;70.92
21706;BME280;11014;53.076;18.208;2024-02-16T00:53:15;101681.34;;;15.06;70.87
21706;BME280;11014;53.076;18.208;2024-02-16T00:55:44;101685.13;;;15.05;70.78
21706;BME280;11014;53.076;18.208;2024-02-16T00:58:14;101675.56;;;15.03;70.92
21706;BME280;11014;53.076;18.208;2024-02-16T01:00:43;101678.06;;;15.04;70.74
21706;BME280;11014;53.076;18.208;2024-02-16T01:03:13;101674.31;;;15.05;71.00
21706;BME280;11014;53.076;18.208;2024-02-16T01:05:42;101673.22;;;15.06;70.68
21706;BME280;11014;53.076;18.208;2024-02-16T01:08:11;101675.09;;;15.06;70.81
21706;BME280;11014;53.076;18.208;2024-02-16T01:10:39;101675.94;;;15.06;70.49
21706;BME280;11014;53.076;18.208;2024-02-16T01:13:08;101677.00;;;15.05;70.45
21706;BME280;11014;53.076;18.208;2024-02-16T01:15:38;101674.31;;;15.05;70.45
21706;BME280;11014;53.076;18.208;2024-02-16T01:18:08;101674.31;;;15.05;70.42
21706;BME280;11014;53.076;18.208;2024-02-16T01:20:37;101675.94;;;15.06;70.75
21706;BME280;11014;53.076;18.208;2024-02-16T01:23:06;101675.56;;;15.03;70.73
21706;BME280;11014;53.076;18.208;2024-02-16T01:25:34;101674.78;;;15.02;70.74
21706;BME280;11014;53.076;18.208;2024-02-16T01:28:03;101674.53;;;15.04;70.58
21706;BME280;11014;53.076;18.208;2024-02-16T01:30:32;101671.00;;;15.03;70.40
21706;BME280;11014;53.076;18.208;2024-02-16T01:33:01;101662.28;;;15.01;70.64
21706;BME280;11014;53.076;18.208;2024-02-16T01:35:34;101667.25;;;15.04;70.75
21706;BME280;11014;53.076;18.208;2024-02-16T01:38:04;101659.34;;;15.03;70.72
21706;BME280;11014;53.076;18.208;2024-02-16T01:40:33;101659.00;;;14.99;70.64
21706;BME280;11014;53.076;18.208;2024-02-16T01:43:03;101656.88;;;15.01;70.73
21706;BME280;11014;53.076;18.208;2024-02-16T01:45:31;101660.16;;;15.03;70.56
21706;BME280;11014;53.076;18.208;2024-02-16T01:48:01;101653.94;;;15.03;70.47
21706;BME280;11014;53.076;18.208;2024-02-16T01:50:30;101661.00;;;15.04;70.32
21706;BME280;11014;53.076;18.208;2024-02-16T01:53:01;101653.72;;;15.04;70.18
21706;BME280;11014;53.076;18.208;2024-02-16T01:55:30;101653.13;;;15.02;70.52
21706;BME280;11014;53.076;18.208;2024-02-16T01:57:59;101660.63;;;15.00;70.44
21706;BME280;11014;53.076;18.208;2024-02-16T02:00:28;101650.41;;;15.02;70.28
21706;BME280;11014;53.076;18.208;2024-02-16T02:02:57;101651.00;;;15.04;70.26
21706;BME280;11014;53.076;18.208;2024-02-16T02:05:27;101652.66;;;15.05;70.14
21706;BME280;11014;53.076;18.208;2024-02-16T02:07:56;101644.53;;;15.05;70.17
21706;BME280;11014;53.076;18.208;2024-02-16T02:10:25;101646.06;;;15.01;70.04
21706;BME280;11014;53.076;18.208;2024-02-16T02:12:54;101648.19;;;14.99;70.42
21706;BME280;11014;53.076;18.208;2024-02-16T02:15:23;101635.47;;;15.00;70.29
21706;BME280;11014;53.076;18.208;2024-02-16T02:17:53;101638.19;;;15.00;70.45
21706;BME280;11014;53.076;18.208;2024-02-16T02:20:21;101634.41;;;15.01;70.09
21706;BME280;11014;53.076;18.208;2024-02-16T02:22:51;101634.19;;;15.02;70.15
21706;BME280;11014;53.076;18.208;2024-02-16T02:25:19;101633.34;;;15.02;70.12
21706;BME280;11014;53.076;18.208;2024-02-16T02:27:51;101632.63;;;15.06;70.27
21706;BME280;11014;53.076;18.208;2024-02-16T02:30:20;101632.28;;;15.03;69.95
21706;BME280;11014;53.076;18.208;2024-02-16T02:32:50;101622.28;;;15.03;70.11
21706;BME280;11014;53.076;18.208;2024-02-16T02:35:19;101623.13;;;15.04;69.90
21706;BME280;11014;53.076;18.208;2024-02-16T02:37:48;101619.56;;;15.03;70.11
21706;BME280;11014;53.076;18.208;2024-02-16T02:40:17;101614.41;;;15.02;70.16
21706;BME280;11014;53.076;18.208;2024-02-16T02:42:47;101613.59;;;15.01;69.81
21706;BME280;11014;53.076;18.208;2024-02-16T02:45:15;101611.94;;;15.00;69.89
21706;BME280;11014;53.076;18.208;2024-02-16T02:47:44;101621.69;;;15.01;69.91
21706;BME280;11014;53.076;18.208;2024-02-16T02:50:15;101618.16;;;15.01;69.97
21706;BME280;11014;53.076;18.208;2024-02-16T02:52:44;101611.94;;;15.00;70.06
21706;BME280;11014;53.076;18.208;2024-02-16T02:55:14;101605.72;;;15.00;69.99
21706;BME280;11014;53.076;18.208;2024-02-16T02:57:43;101614.06;;;14.98;69.82
21706;BME280;11014;53.076;18.208;2024-02-16T03:00:12;101611.81;;;14.95;70.05
21706;BME280;11014;53.076;18.208;2024-02-16T03:02:41;101614.97;;;14.92;69.93
21706;BME280;11014;53.076;18.208;2024-02-16T03:05:12;101617.34;;;14.89;70.12
21706;BME280;11014;53.076;18.208;2024-02-16T03:07:41;101620.16;;;14.82;70.03
21706;BME280;11014;53.076;18.208;2024-02-16T03:10:10;101617.34;;;14.77;70.30
21706;BME280;11014;53.076;18.208;2024-02-16T03:12:39;101618.63;;;14.74;70.34
21706;BME280;11014;53.076;18.208;2024-02-16T03:15:08;101626.97;;;14.73;69.94
21706;BME280;11014;53.076;18.208;2024-02-16T03:17:37;101627.44;;;14.70;70.37
21706;BME280;11014;53.076;18.208;2024-02-16T03:20:06;101632.25;;;14.68;70.40
21706;BME280;11014;53.076;18.208;2024-02-16T03:22:37;101630.00;;;14.65;70.28
21706;BME280;11014;53.076;18.208;2024-02-16T03:25:05;101626.72;;;14.63;70.43
21706;BME280;11014;53.076;18.208;2024-02-16T03:27:34;101634.25;;;14.61;70.38
21706;BME280;11014;53.076;18.208;2024-02-16T03:30:04;101633.53;;;14.54;70.29
21706;BME280;11014;53.076;18.208;2024-02-16T03:32:34;101627.16;;;14.48;70.38
21706;BME280;11014;53.076;18.208;2024-02-16T03:35:02;101633.72;;;14.41;70.71
21706;BME280;11014;53.076;18.208;2024-02-16T03:37:32;101628.78;;;14.38;70.53
21706;BME280;11014;53.076;18.208;2024-02-16T03:40:05;101626.53;;;14.35;70.60
21706;BME280;11014;53.076;18.208;2024-02-16T03:42:34;101635.13;;;14.32;70.73
21706;BME280;11014;53.076;18.208;2024-02-16T03:45:06;101627.59;;;14.34;70.58
21706;BME280;11014;53.076;18.208;2024-02-16T03:47:35;101633.84;;;14.34;70.60
21706;BME280;11014;53.076;18.208;2024-02-16T03:50:05;101635.47;;;14.35;70.57
21706;BME280;11014;53.076;18.208;2024-02-16T03:52:35;101641.13;;;14.34;70.59
21706;BME280;11014;53.076;18.208;2024-02-16T03:55:04;101640.13;;;14.28;70.64
21706;BME280;11014;53.076;18.208;2024-02-16T03:57:34;101639.31;;;14.27;70.72
21706;BME280;11014;53.076;18.208;2024-02-16T04:00:04;101645.75;;;14.26;70.83
21706;BME280;11014;53.076;18.208;2024-02-16T04:02:42;101640.59;;;14.25;70.71
21706;BME280;11014;53.076;18.208;2024-02-16T04:05:11;101632.81;;;14.17;70.53
21706;BME280;11014;53.076;18.208;2024-02-16T04:07:39;101637.38;;;14.16;70.84
21706;BME280;11014;53.076;18.208;2024-02-16T04:10:09;101627.84;;;14.14;70.77
21706;BME280;11014;53.076;18.208;2024-02-16T04:12:38;101623.63;;;14.18;70.76
21706;BME280;11014;53.076;18.208;2024-02-16T04:15:07;101627.16;;;14.18;70.41
21706;BME280;11014;53.076;18.208;2024-02-16T04:17:36;101630.19;;;14.10;70.28
21706;BME280;11014;53.076;18.208;2024-02-16T04:20:05;101627.13;;;14.07;70.75
21706;BME280;11014;53.076;18.208;2024-02-16T04:22:35;101624.06;;;14.03;70.60
21706;BME280;11014;53.076;18.208;2024-02-16T04:25:06;101623.94;;;13.98;70.58
21706;BME280;11014;53.076;18.208;2024-02-16T04:27:36;101616.88;;;13.97;70.79
21706;BME280;11014;53.076;18.208;2024-02-16T04:30:05;101617.91;;;13.96;70.49
21706;BME280;11014;53.076;18.208;2024-02-16T04:32:36;101621.53;;;13.90;70.73
21706;BME280;11014;53.076;18.208;2024-02-16T04:35:05;101609.78;;;13.85;70.91
21706;BME280;11014;53.076;18.208;2024-02-16T04:37:34;101616.22;;;13.84;70.83
21706;BME280;11014;53.076;18.208;2024-02-16T04:40:03;101619.16;;;13.82;70.60
21706;BME280;11014;53.076;18.208;2024-02-16T04:42:33;101619.59;;;13.79;70.83
21706;BME280;11014;53.076;18.208;2024-02-16T04:45:01;101623.13;;;13.80;70.73
21706;BME280;11014;53.076;18.208;2024-02-16T04:47:34;101618.41;;;13.75;70.86
21706;BME280;11014;53.076;18.208;2024-02-16T04:50:03;101618.19;;;13.77;70.93
21706;BME280;11014;53.076;18.208;2024-02-16T04:52:32;101624.38;;;13.77;70.63
21706;BME280;11014;53.076;18.208;2024-02-16T04:55:01;101619.59;;;13.79;70.56
21706;BME280;11014;53.076;18.208;2024-02-16T04:57:30;101610.22;;;13.82;70.35
21706;BME280;11014;53.076;18.208;2024-02-16T04:59:59;101615.84;;;13.80;70.45
21706;BME280;11014;53.076;18.208;2024-02-16T05:02:29;101615.50;;;13.77;70.55
21706;BME280;11014;53.076;18.208;2024-02-16T05:04:57;101607.59;;;13.75;70.48
21706;BME280;11014;53.076;18.208;2024-02-16T05:07:32;101607.59;;;13.75;70.44
21706;BME280;11014;53.076;18.208;2024-02-16T05:10:02;101608.06;;;13.72;70.47
21706;BME280;11014;53.076;18.208;2024-02-16T05:12:31;101612.28;;;13.68;70.53
21706;BME280;11014;53.076;18.208;2024-02-16T05:15:00;101621.41;;;13.67;70.41
21706;BME280;11014;53.076;18.208;2024-02-16T05:17:29;101612.34;;;13.61;70.59
21706;BME280;11014;53.076;18.208;2024-02-16T05:19:57;101609.88;;;13.60;70.69
21706;BME280;11014;53.076;18.208;2024-02-16T05:22:26;101614.22;;;13.61;70.42
21706;BME280;11014;53.076;18.208;2024-02-16T05:24:54;101614.84;;;13.63;70.35
21706;BME280;11014;53.076;18.208;2024-02-16T05:27:24;101618.13;;;13.65;70.65
21706;BME280;11014;53.076;18.208;2024-02-16T05:29:53;101615.88;;;13.62;70.22
21706;BME280;11014;53.076;18.208;2024-02-16T05:32:22;101616.09;;;13.60;70.51
21706;BME280;11014;53.076;18.208;2024-02-16T05:34:51;101614.06;;;13.56;70.27
21706;BME280;11014;53.076;18.208;2024-02-16T05:37:22;101614.66;;;13.58;70.48
21706;BME280;11014;53.076;18.208;2024-02-16T05:39:51;101615.72;;;13.57;70.16
21706;BME280;11014;53.076;18.208;2024-02-16T05:42:27;101622.75;;;13.58;70.34
21706;BME280;11014;53.076;18.208;2024-02-16T05:44:57;101621.13;;;13.57;70.38
21706;BME280;11014;53.076;18.208;2024-02-16T05:47:28;101620.75;;;13.53;70.40
21706;BME280;11014;53.076;18.208;2024-02-16T05:49:56;101625.31;;;13.53;70.44
21706;BME280;11014;53.076;18.208;2024-02-16T05:52:27;101630.72;;;13.53;70.31
21706;BME280;11014;53.076;18.208;2024-02-16T05:54:58;101624.47;;;13.52;70.44
21706;BME280;11014;53.076;18.208;2024-02-16T05:57:27;101625.75;;;13.50;70.46
21706;BME280;11014;53.076;18.208;2024-02-16T05:59:57;101626.25;;;13.47;70.38
21706;BME280;11014;53.076;18.208;2024-02-16T06:02:30;101622.91;;;13.45;70.36
21706;BME280;11014;53.076;18.208;2024-02-16T06:05:00;101622.56;;;13.41;70.30
21706;BME280;11014;53.076;18.208;2024-02-16T06:07:29;101623.81;;;13.39;70.33
21706;BME280;11014;53.076;18.208;2024-02-16T06:09:59;101619.34;;;13.33;70.31
21706;BME280;11014;53.076;18.208;2024-02-16T06:12:27;101614.38;;;13.30;70.34
21706;BME280;11014;53.076;18.208;2024-02-16T06:14:57;101616.50;;;13.28;70.80
21706;BME280;11014;53.076;18.208;2024-02-16T06:17:25;101620.59;;;13.30;70.44
21706;BME280;11014;53.076;18.208;2024-02-16T06:19:54;101620.81;;;13.29;70.37
21706;BME280;11014;53.076;18.208;2024-02-16T06:22:23;101622.69;;;13.28;70.65
21706;BME280;11014;53.076;18.208;2024-02-16T06:24:53;101622.69;;;13.28;70.46
21706;BME280;11014;53.076;18.208;2024-02-16T06:27:21;101626.66;;;13.26;70.79
21706;BME280;11014;53.076;18.208;2024-02-16T06:29:50;101623.38;;;13.24;70.57
21706;BME280;11014;53.076;18.208;2024-02-16T06:32:18;101626.50;;;13.21;70.66
21706;BME280;11014;53.076;18.208;2024-02-16T06:34:48;101626.50;;;13.21;70.76
21706;BME280;11014;53.076;18.208;2024-02-16T06:37:17;101626.06;;;13.24;70.51
21706;BME280;11014;53.076;18.208;2024-02-16T06:39:45;101632.88;;;13.26;70.76
21706;BME280;11014;53.076;18.208;2024-02-16T06:42:15;101630.56;;;13.30;70.30
21706;BME280;11014;53.076;18.208;2024-02-16T06:44:44;101636.56;;;13.32;70.65
21706;BME280;11014;53.076;18.208;2024-02-16T06:47:12;101637.25;;;13.27;70.59
21706;BME280;11014;53.076;18.208;2024-02-16T06:49:41;101631.47;;;13.24;70.75
21706;BME280;11014;53.076;18.208;2024-02-16T06:52:10;101639.56;;;13.24;70.78
21706;BME280;11014;53.076;18.208;2024-02-16T06:54:39;101636.41;;;13.27;70.75
21706;BME280;11014;53.076;18.208;2024-02-16T06:57:07;101633.88;;;13.32;70.73
21706;BME280;11014;53.076;18.208;2024-02-16T06:59:40;101636.13;;;13.35;70.43
21706;BME280;11014;53.076;18.208;2024-02-16T07:02:09;101636.72;;;13.37;70.62
21706;BME280;11014;53.076;18.208;2024-02-16T07:04:40;101641.28;;;13.36;70.53
21706;BME280;11014;53.076;18.208;2024-02-16T07:07:09;101632.97;;;13.38;70.23
21706;BME280;11014;53.076;18.208;2024-02-16T07:09:38;101630.88;;;13.40;70.20
21706;BME280;11014;53.076;18.208;2024-02-16T07:12:07;101628.41;;;13.38;70.34
21706;BME280;11014;53.076;18.208;2024-02-16T07:14:37;101626.97;;;13.36;70.17
21706;BME280;11014;53.076;18.208;2024-02-16T07:17:06;101618.50;;;13.32;70.04
21706;BME280;11014;53.076;18.208;2024-02-16T07:19:38;101621.25;;;13.26;70.01
21706;BME280;11014;53.076;18.208;2024-02-16T07:22:07;101631.06;;;13.20;69.98
21706;BME280;11014;53.076;18.208;2024-02-16T07:24:36;101632.34;;;13.18;70.28
21706;BME280;11014;53.076;18.208;2024-02-16T07:27:04;101629.06;;;13.16;70.35
21706;BME280;11014;53.076;18.208;2024-02-16T07:29:33;101628.47;;;13.14;70.45
21706;BME280;11014;53.076;18.208;2024-02-16T07:32:04;101630.31;;;13.13;70.34
21706;BME280;11014;53.076;18.208;2024-02-16T07:34:34;101632.19;;;13.13;70.00
21706;BME280;11014;53.076;18.208;2024-02-16T07:37:03;101634.50;;;13.09;70.21
21706;BME280;11014;53.076;18.208;2024-02-16T07:39:32;101633.28;;;13.05;70.36
21706;BME280;11014;53.076;18.208;2024-02-16T07:42:01;101632.88;;;13.01;70.38
21706;BME280;11014;53.076;18.208;2024-02-16T07:44:30;101630.19;;;13.01;70.37
21706;BME280;11014;53.076;18.208;2024-02-16T07:46:59;101627.50;;;13.01;70.37
21706;BME280;11014;53.076;18.208;2024-02-16T07:49:27;101623.97;;;13.01;70.25
21706;BME280;11014;53.076;18.208;2024-02-16T07:51:57;101623.38;;;12.99;70.04
21706;BME280;11014;53.076;18.208;2024-02-16T07:54:26;101622.53;;;12.98;70.43
21706;BME280;11014;53.076;18.208;2024-02-16T07:56:54;101621.50;;;12.99;70.32
21706;BME280;11014;53.076;18.208;2024-02-16T07:59:25;101621.66;;;13.04;70.62
21706;BME280;11014;53.076;18.208;2024-02-16T08:01:57;101615.84;;;13.07;70.48
21706;BME280;11014;53.076;18.208;2024-02-16T08:04:32;101623.72;;;13.09;70.63
21706;BME280;11014;53.076;18.208;2024-02-16T08:07:01;101621.41;;;13.13;70.46
21706;BME280;11014;53.076;18.208;2024-02-16T08:09:33;101622.63;;;13.17;70.50
21706;BME280;11014;53.076;18.208;2024-02-16T08:12:04;101623.59;;;13.22;70.70
21706;BME280;11014;53.076;18.208;2024-02-16T08:14:36;101618.56;;;13.26;70.86
21706;BME280;11014;53.076;18.208;2024-02-16T08:17:06;101620.81;;;13.29;70.77
21706;BME280;11014;53.076;18.208;2024-02-16T08:19:54;101611.25;;;13.33;70.90
21706;BME280;11014;53.076;18.208;2024-02-16T08:22:23;101614.53;;;13.35;70.79
21706;BME280;11014;53.076;18.208;2024-02-16T08:24:53;101608.69;;;13.38;70.59
21706;BME280;11014;53.076;18.208;2024-02-16T08:27:22;101618.59;;;13.44;70.85
21706;BME280;11014;53.076;18.208;2024-02-16T08:29:52;101611.66;;;13.48;70.50
21706;BME280;11014;53.076;18.208;2024-02-16T08:32:21;101611.59;;;13.54;70.43
21706;BME280;11014;53.076;18.208;2024-02-16T08:34:49;101603.66;;;13.59;70.31
21706;BME280;11014;53.076;18.208;2024-02-16T08:37:19;101616.00;;;13.67;70.32
21706;BME280;11014;53.076;18.208;2024-02-16T08:39:48;101611.81;;;13.71;70.38
21706;BME280;11014;53.076;18.208;2024-02-16T08:42:17;101607.59;;;13.75;70.26
21706;BME280;11014;53.076;18.208;2024-02-16T08:44:46;101618.31;;;13.82;70.02
21706;BME280;11014;53.076;18.208;2024-02-16T08:47:15;101609.53;;;13.86;69.82
21706;BME280;11014;53.076;18.208;2024-02-16T08:49:44;101610.28;;;13.93;69.86
21706;BME280;11014;53.076;18.208;2024-02-16T08:52:13;101607.47;;;14.00;69.64
21706;BME280;11014;53.076;18.208;2024-02-16T08:54:43;101608.22;;;14.07;69.43
21706;BME280;11014;53.076;18.208;2024-02-16T08:57:12;101611.66;;;14.14;69.31
21706;BME280;11014;53.076;18.208;2024-02-16T08:59:42;101614.09;;;14.15;69.38
21706;BME280;11014;53.076;18.208;2024-02-16T09:02:12;101606.97;;;14.21;69.18
21706;BME280;11014;53.076;18.208;2024-02-16T09:04:41;101603.59;;;14.25;68.84
21706;BME280;11014;53.076;18.208;2024-02-16T09:07:11;101603.03;;;14.35;68.85
21706;BME280;11014;53.076;18.208;2024-02-16T09:09:40;101601.06;;;14.42;69.04
21706;BME280;11014;53.076;18.208;2024-02-16T09:12:09;101598.25;;;14.49;68.92
21706;BME280;11014;53.076;18.208;2024-02-16T09:14:40;101584.63;;;14.55;68.42
21706;BME280;11014;53.076;18.208;2024-02-16T09:17:13;101591.81;;;14.61;68.16
21706;BME280;11014;53.076;18.208;2024-02-16T09:19:42;101591.69;;;14.68;68.00
21706;BME280;11014;53.076;18.208;2024-02-16T09:22:13;101595.72;;;14.77;68.15
21706;BME280;11014;53.076;18.208;2024-02-16T09:24:43;101586.41;;;14.84;67.84
21706;BME280;11014;53.076;18.208;2024-02-16T09:27:16;101600.41;;;14.93;67.50
21706;BME280;11014;53.076;18.208;2024-02-16T09:29:45;101587.56;;;15.00;67.48
21706;BME280;11014;53.076;18.208;2024-02-16T09:32:14;101582.88;;;15.07;67.58
21706;BME280;11014;53.076;18.208;2024-02-16T09:34:45;101588.16;;;15.14;67.17
21706;BME280;11014;53.076;18.208;2024-02-16T09:37:13;101587.09;;;15.15;66.70
21706;BME280;11014;53.076;18.208;2024-02-16T09:39:42;101576.97;;;15.22;66.85
21706;BME280;11014;53.076;18.208;2024-02-16T09:42:11;101590.97;;;15.30;66.35
21706;BME280;11014;53.076;18.208;2024-02-16T09:44:44;101580.75;;;15.32;65.75
21706;BME280;11014;53.076;18.208;2024-02-16T09:47:14;101587.19;;;15.43;66.00
21706;BME280;11014;53.076;18.208;2024-02-16T09:49:50;101580.13;;;15.54;66.08
21706;BME280;11014;53.076;18.208;2024-02-16T09:52:19;101579.25;;;15.65;65.92
21706;BME280;11014;53.076;18.208;2024-02-16T09:54:48;101580.19;;;15.70;65.59
21706;BME280;11014;53.076;18.208;2024-02-16T09:57:17;101574.38;;;15.78;65.40
21706;BME280;11014;53.076;18.208;2024-02-16T09:59:50;101581.22;;;15.81;64.91
21706;BME280;11014;53.076;18.208;2024-02-16T10:02:19;101581.56;;;15.84;64.36
21706;BME280;11014;53.076;18.208;2024-02-16T10:04:48;101577.75;;;15.85;64.26
21706;BME280;11014;53.076;18.208;2024-02-16T10:07:18;101578.09;;;15.89;63.82
21706;BME280;11014;53.076;18.208;2024-02-16T10:09:49;101575.00;;;15.97;63.96
21706;BME280;11014;53.076;18.208;2024-02-16T10:12:22;101576.75;;;16.03;63.50
21706;BME280;11014;53.076;18.208;2024-02-16T10:14:58;101574.69;;;16.10;63.50
21706;BME280;11014;53.076;18.208;2024-02-16T10:17:28;101568.06;;;16.18;63.49
21706;BME280;11014;53.076;18.208;2024-02-16T10:19:59;101571.78;;;16.28;62.95
21706;BME280;11014;53.076;18.208;2024-02-16T10:22:28;101570.78;;;16.34;62.91
21706;BME280;11014;53.076;18.208;2024-02-16T10:25:07;101571.47;;;16.41;62.80
21706;BME280;11014;53.076;18.208;2024-02-16T10:27:40;101570.97;;;16.44;62.57
21706;BME280;11014;53.076;18.208;2024-02-16T10:30:11;101568.00;;;16.46;62.14
21706;BME280;11014;53.076;18.208;2024-02-16T10:32:40;101575.41;;;16.50;62.27
21706;BME280;11014;53.076;18.208;2024-02-16T10:35:10;101572.81;;;16.55;61.99
21706;BME280;11014;53.076;18.208;2024-02-16T10:37:40;101559.81;;;16.57;61.68
21706;BME280;11014;53.076;18.208;2024-02-16T10:40:10;101556.66;;;16.49;61.83
21706;BME280;11014;53.076;18.208;2024-02-16T10:42:43;101552.03;;;16.61;62.13
21706;BME280;11014;53.076;18.208;2024-02-16T10:45:14;101549.78;;;16.75;62.55
21706;BME280;11014;53.076;18.208;2024-02-16T10:47:43;101548.78;;;16.81;61.93
21706;BME280;11014;53.076;18.208;2024-02-16T10:50:12;101542.44;;;16.92;61.75
21706;BME280;11014;53.076;18.208;2024-02-16T10:52:43;101532.78;;;17.01;61.83
21706;BME280;11014;53.076;18.208;2024-02-16T10:55:14;101534.56;;;17.12;61.70
21706;BME280;11014;53.076;18.208;2024-02-16T10:57:44;101539.63;;;17.25;61.10
21706;BME280;11014;53.076;18.208;2024-02-16T11:00:16;101530.53;;;17.36;61.32
21706;BME280;11014;53.076;18.208;2024-02-16T11:02:54;101528.50;;;17.48;60.53
21706;BME280;11014;53.076;18.208;2024-02-16T11:05:51;101522.50;;;17.68;59.81
21706;BME280;11014;53.076;18.208;2024-02-16T11:08:25;101522.22;;;17.64;59.24
21706;BME280;11014;53.076;18.208;2024-02-16T11:10:59;101514.06;;;17.64;58.92
21706;BME280;11014;53.076;18.208;2024-02-16T11:13:32;101508.16;;;17.72;58.97
21706;BME280;11014;53.076;18.208;2024-02-16T11:16:09;101504.44;;;17.79;58.24
21706;BME280;11014;53.076;18.208;2024-02-16T11:18:39;101503.88;;;17.82;58.36
21706;BME280;11014;53.076;18.208;2024-02-16T11:21:15;101503.13;;;17.86;57.98
21706;BME280;11014;53.076;18.208;2024-02-16T11:24:20;101494.59;;;18.04;57.69
21706;BME280;11014;53.076;18.208;2024-02-16T11:27:24;101493.88;;;18.14;57.54
21706;BME280;11014;53.076;18.208;2024-02-16T11:29:53;101485.75;;;18.19;56.90
21706;BME280;11014;53.076;18.208;2024-02-16T11:32:25;101479.31;;;18.30;57.03
21706;BME280;11014;53.076;18.208;2024-02-16T11:34:55;101479.94;;;18.42;56.65
21706;BME280;11014;53.076;18.208;2024-02-16T11:37:25;101474.03;;;18.50;56.59
21706;BME280;11014;53.076;18.208;2024-02-16T11:39:57;101469.16;;;18.52;55.85
21706;BME280;11014;53.076;18.208;2024-02-16T11:42:26;101473.25;;;18.55;55.28
21706;BME280;11014;53.076;18.208;2024-02-16T11:44:55;101473.53;;;18.58;54.89
21706;BME280;11014;53.076;18.208;2024-02-16T11:47:25;101472.50;;;18.64;54.76
21706;BME280;11014;53.076;18.208;2024-02-16T11:50:05;101464.94;;;18.76;54.27
21706;BME280;11014;53.076;18.208;2024-02-16T11:52:35;101456.81;;;18.81;53.59
21706;BME280;11014;53.076;18.208;2024-02-16T11:55:07;101462.16;;;19.23;53.59
21706;BME280;11014;53.076;18.208;2024-02-16T11:57:38;101446.22;;;20.13;51.80
21706;BME280;11014;53.076;18.208;2024-02-16T12:00:08;101453.69;;;21.11;49.50
21706;BME280;11014;53.076;18.208;2024-02-16T12:02:40;101439.56;;;21.82;47.90
21706;BME280;11014;53.076;18.208;2024-02-16T12:05:08;101441.94;;;22.27;47.26
21706;BME280;11014;53.076;18.208;2024-02-16T12:07:38;101439.41;;;22.65;46.15
21706;BME280;11014;53.076;18.208;2024-02-16T12:10:10;101433.59;;;22.90;45.71
21706;BME280;11014;53.076;18.208;2024-02-16T12:12:40;101442.84;;;23.41;44.72
21706;BME280;11014;53.076;18.208;2024-02-16T12:15:11;101441.03;;;23.88;43.28
21706;BME280;11014;53.076;18.208;2024-02-16T12:17:42;101439.66;;;24.04;43.23
21706;BME280;11014;53.076;18.208;2024-02-16T12:20:13;101431.59;;;24.12;41.35
21706;BME280;11014;53.076;18.208;2024-02-16T12:22:44;101425.72;;;24.46;41.58
21706;BME280;11014;53.076;18.208;2024-02-16T12:25:13;101419.88;;;24.94;41.05
21706;BME280;11014;53.076;18.208;2024-02-16T12:27:43;101428.31;;;25.33;39.51
21706;BME280;11014;53.076;18.208;2024-02-16T12:30:14;101421.97;;;25.60;39.09
21706;BME280;11014;53.076;18.208;2024-02-16T12:32:44;101417.13;;;25.87;38.54
21706;BME280;11014;53.076;18.208;2024-02-16T12:35:13;101420.41;;;26.12;37.67
21706;BME280;11014;53.076;18.208;2024-02-16T12:37:43;101408.19;;;26.26;37.31
21706;BME280;11014;53.076;18.208;2024-02-16T12:40:11;101405.19;;;26.45;37.05
21706;BME280;11014;53.076;18.208;2024-02-16T12:42:40;101402.13;;;26.46;37.41
21706;BME280;11014;53.076;18.208;2024-02-16T12:45:10;101391.63;;;26.57;36.11
21706;BME280;11014;53.076;18.208;2024-02-16T12:47:39;101395.50;;;26.56;36.20
21706;BME280;11014;53.076;18.208;2024-02-16T12:50:08;101407.88;;;26.28;35.93
21706;BME280;11014;53.076;18.208;2024-02-16T12:52:37;101390.56;;;26.05;36.00
21706;BME280;11014;53.076;18.208;2024-02-16T12:55:17;101392.13;;;25.53;36.35